Terminal Aerodrome Forecast
Issued by NWS

Home | Current Version | Previous Version | Text Only | Print | Product List | Glossary On
Versions: 1 2 3 4 5 6 7 8 9 10 11 12 13
000
FTUS46 KSTO 210200 AAA
TAFSCK
TAF AMD
KSCK 210234Z 2103/2124 32009KT P6SM VCTS SCT100CB BKN200
     FM210600 VRB05KT P6SM SCT150
     FM211800 30008KT P6SM SCT200=

USA.gov is the U.S. government's official web portal to all federal, state and local government web resources and services.